Latest Coastal Weather Observations for Alva Beach

IDQ60701

Issued at 12:21 am EST Monday 20 February 2017 (issued every 10 minutes, with the page automatically refreshed every 10 minutes)

About coastal observations | Map of coastal stations | Coastal observations for QLD | Marine services | Other Formats
Station Details ID: 033295 Name: ALVA BEACH Lat: -19.46 Lon: 147.48 Height: 7.5 m
Data from the previous 72 hours. | See also: Recent months at Alva Beach
Date/Time
EST
Temp
°C
Wind Pressure Rain since
9am
mm
Weather Cloud Vis
km
Sea
Height
m
Swell
Dir  Spd
kts
Gust
kts
hPa Trend Height
m
Period
s
Dir
20/12:00am 25.3 SW 2 4 1009.2 - 0.0 - - - - - - -
 
Date/Time
EST
Temp
°C
Wind Pressure Rain since
9am
mm
Weather Cloud Vis
km
Sea
Height
m
Swell
Dir  Spd
kts
Gust
kts
hPa Trend Height
m
Period
s
Dir
19/11:30pm 25.3 SW 4 6 1009.4 - 0.0 - - - - - - -
19/11:00pm 25.4 WSW 1 4 1009.3 - 0.0 - - - - - - -
19/10:30pm 25.5 WSW 2 4 1009.3 - 0.0 - - - - - - -
19/10:00pm 25.5 SW 4 5 1009.2 - 0.0 - - - - - - -
19/09:30pm 25.5 NW 3 4 1008.8 - 0.0 - - - - - - -
19/09:00pm 25.1 WSW 3 5 1009.0 - 0.0 - - - - - - -
19/08:30pm 25.0 SSW 5 8 1008.5 - 0.0 - - - - - - -
19/08:00pm 25.7 SW 5 7 1008.4 - 0.0 - - - - - - -
19/07:30pm 26.0 SW 5 9 1007.9 - 0.0 - - - - - - -
19/07:00pm 27.0 SW 6 11 1008.0 - 0.0 - - - - - - -
19/06:30pm 28.5 NW 3 7 1007.5 - 0.0 - - - - - - -
19/06:00pm 27.8 NW 1 5 1006.7 - 0.0 - - - - - - -
19/05:30pm 27.9 W 3 5 1006.4 - 0.0 - - - - - - -
19/05:00pm 27.8 WNW 7 13 1006.2 - 0.0 - - - - - - -
19/04:30pm 29.4 N 8 13 1006.1 - 0.0 - - - - - - -
19/04:00pm 29.8 N 9 12 1006.1 - 0.0 - - - - - - -
19/03:30pm 30.2 NNE 12 15 1005.8 - 0.0 - - - - - - -
19/03:00pm 30.6 NNE 11 15 1006.1 - 0.0 - - - - - - -
19/02:30pm 30.4 NNE 12 15 1006.6 - 0.0 - - - - - - -
19/02:00pm 30.6 NNE 12 15 1007.1 - 0.0 - - - - - - -
19/01:30pm 30.6 N 11 15 1007.6 - 0.0 - - - - - - -
19/01:00pm 30.7 NNE 11 14 1008.0 - 0.0 - - - - - - -
19/12:30pm 30.8 NNE 11 14 1008.4 - 0.0 - - - - - - -
19/12:00pm 30.6 NNE 10 12 1008.7 - 0.0 - - - - - - -
19/11:30am 30.0 NNE 10 13 1009.1 - 0.0 - - - - - - -
19/11:00am 29.9 NNE 7 9 1009.4 - 0.0 - - - - - - -
19/10:30am 29.8 NNE 7 8 1009.6 - 0.0 - - - - - - -
19/10:00am 30.1 N 5 8 1009.7 - 0.0 - - - - - - -
19/09:30am 29.6 NW 3 7 1010.1 - 0.0 - - - - - - -
19/09:00am 29.9 W 3 6 1010.1 - 0.0 - - - - - - -
19/08:30am 29.1 WSW 3 6 1010.1 - 0.0 - - - - - - -
19/08:00am 28.4 SW 3 4 1009.9 - 0.0 - - - - - - -
19/07:30am 28.0 W 4 7 1009.7 - 0.0 - - - - - - -
19/07:00am 26.7 WNW 1 4 1009.2 - 0.0 - - - - - - -
19/06:30am 26.3 NW 2 4 1008.7 - 0.0 - - - - - - -
19/06:00am 26.0 NW 3 5 1008.3 - 0.0 - - - - - - -
19/05:30am 26.2 NW 3 4 1007.9 - 0.0 - - - - - - -
19/05:00am 26.2 NNW 2 4 1007.6 - 0.0 - - - - - - -
19/04:30am 26.3 NW 2 4 1007.4 - 0.0 - - - - - - -
19/04:00am 26.5 NNW 3 4 1007.2 - 0.0 - - - - - - -
19/03:30am 27.0 NNW 4 5 1007.1 - 0.0 - - - - - - -
19/03:00am 27.1 NNW 4 6 1007.4 - 0.0 - - - - - - -
19/02:30am 27.2 NNW 4 6 1007.7 - 0.0 - - - - - - -
19/02:00am 26.9 NNW 5 6 1008.1 - 0.0 - - - - - - -
19/01:30am 26.7 NNW 4 6 1008.5 - 0.0 - - - - - - -
19/01:00am 26.9 NW 3 6 1008.9 - 0.0 - - - - - - -
19/12:30am 27.2 N 5 7 1009.1 - 0.0 - - - - - - -
19/12:00am 27.2 NNW 4 6 1009.6 - 0.0 - - - - - - -
 
Date/Time
EST
Temp
°C
Wind Pressure Rain since
9am
mm
Weather Cloud Vis
km
Sea
Height
m
Swell
Dir  Spd
kts
Gust
kts
hPa Trend Height
m
Period
s
Dir
18/11:30pm 27.2 NNW 4 5 1009.8 - 0.0 - - - - - - -
18/11:00pm 27.1 N 3 6 1010.1 - 0.0 - - - - - - -
18/10:30pm 27.3 N 5 7 1010.3 - 0.0 - - - - - - -
18/10:00pm 27.6 N 6 8 1010.4 - 0.0 - - - - - - -
18/09:30pm 27.7 N 5 8 1010.3 - 0.0 - - - - - - -
18/09:00pm 27.8 N 7 10 1010.0 - 0.0 - - - - - - -
18/08:30pm 28.0 N 8 11 1009.9 - 0.0 - - - - - - -
18/08:00pm 28.0 NNE 10 12 1009.6 - 0.0 - - - - - - -
18/07:30pm 28.1 NNE 10 12 1009.4 - 0.0 - - - - - - -
18/07:00pm 28.2 NNE 10 13 1009.0 - 0.0 - - - - - - -
18/06:30pm 28.3 NNE 10 11 1008.5 - 0.0 - - - - - - -
18/06:00pm 28.5 NNE 10 12 1008.3 - 0.0 - - - - - - -
18/05:30pm 28.8 NNE 9 11 1008.0 - 0.0 - - - - - - -
18/05:00pm 29.3 NNE 9 12 1008.0 - 0.0 - - - - - - -
18/04:30pm 29.6 NNE 9 12 1008.1 - 0.0 - - - - - - -
18/04:00pm 29.4 NNE 10 12 1008.3 - 0.0 - - - - - - -
18/03:30pm 29.8 NNE 9 12 1008.8 - 0.0 - - - - - - -
18/03:00pm 29.8 NNE 9 11 1009.1 - 0.0 - - - - - - -
18/02:30pm 29.9 NNE 10 12 1009.3 - 0.0 - - - - - - -
18/02:00pm 29.9 NNE 9 12 1009.7 - 0.0 - - - - - - -
18/01:30pm 30.0 NNE 9 11 1010.1 - 0.0 - - - - - - -
18/01:00pm 30.0 NE 7 9 1010.3 - 0.0 - - - - - - -
18/12:30pm 29.9 NNE 7 10 1010.7 - 0.0 - - - - - - -
18/12:00pm 29.8 NNE 7 9 1011.1 - 0.0 - - - - - - -
18/11:30am 29.8 NE 7 9 1011.4 - 0.0 - - - - - - -
18/11:00am 29.6 NNE 6 8 1011.8 - 0.0 - - - - - - -
18/10:30am 30.0 NE 6 8 1012.0 - 0.0 - - - - - - -
18/10:00am 29.1 NE 5 6 1012.3 - 0.0 - - - - - - -
18/09:30am 29.3 NE 5 7 1012.4 - 0.0 - - - - - - -
18/09:00am 29.6 NE 5 6 1012.4 - 0.0 - - - - - - -
18/08:30am 29.4 ENE 3 5 1012.5 - 0.0 - - - - - - -
18/08:00am 28.3 CALM 0 3 1012.3 - 0.0 - - - - - - -
18/07:30am 26.0 CALM 0 0 1012.1 - 0.0 - - - - - - -
18/07:00am 25.1 S 2 4 1011.7 - 0.0 - - - - - - -
18/06:30am 24.2 SSW 3 5 1011.5 - 0.0 - - - - - - -
18/06:00am 24.3 W 1 4 1011.3 - 0.0 - - - - - - -
18/05:30am 24.7 CALM 0 0 1011.3 - 0.0 - - - - - - -
18/05:00am 25.0 CALM 0 3 1010.9 - 0.0 - - - - - - -
18/04:30am 26.2 NNE 4 6 1010.7 - 0.0 - - - - - - -
18/04:00am 26.9 NE 5 6 1010.4 - 0.0 - - - - - - -
18/03:30am 26.9 NE 6 8 1010.3 - 0.0 - - - - - - -
18/03:00am 26.8 NE 6 7 1010.4 - 0.0 - - - - - - -
18/02:30am 26.9 NE 6 7 1010.4 - 0.0 - - - - - - -
18/02:00am 26.7 ENE 6 8 1010.7 - 0.0 - - - - - - -
18/01:30am 26.9 ENE 6 7 1010.9 - 0.0 - - - - - - -
18/01:00am 26.9 ENE 6 7 1011.3 - 0.0 - - - - - - -
18/12:30am 27.0 ENE 6 8 1011.6 - 0.0 - - - - - - -
18/12:00am 27.0 ENE 6 7 1012.0 - 0.0 - - - - - - -
 
Date/Time
EST
Temp
°C
Wind Pressure Rain since
9am
mm
Weather Cloud Vis
km
Sea
Height
m
Swell
Dir  Spd
kts
Gust
kts
hPa Trend Height
m
Period
s
Dir
17/11:30pm 27.3 ENE 5 7 1012.3 - 0.0 - - - - - - -
17/11:00pm 27.2 ENE 6 8 1012.5 - 0.0 - - - - - - -
17/10:30pm 27.2 ENE 5 7 1012.8 - 0.0 - - - - - - -
17/10:00pm 27.4 NE 6 8 1012.8 - 0.0 - - - - - - -
17/09:30pm 27.5 NNE 7 9 1012.8 - 0.0 - - - - - - -
17/09:00pm 27.7 NE 7 9 1012.9 - 0.0 - - - - - - -
17/08:30pm 27.8 NE 7 9 1012.6 - 0.0 - - - - - - -
17/08:00pm 27.8 NE 7 9 1012.4 - 0.0 - - - - - - -
17/07:30pm 28.0 NE 7 9 1012.1 - 0.0 - - - - - - -
17/07:00pm 28.0 NE 8 10 1012.0 - 0.0 - - - - - - -
17/06:30pm 28.2 NE 8 10 1011.7 - 0.0 - - - - - - -
17/06:00pm 28.5 NE 7 10 1011.5 - 0.0 - - - - - - -
17/05:30pm 29.0 NE 8 10 1011.3 - 0.0 - - - - - - -
17/05:00pm 29.4 ENE 9 11 1011.3 - 0.0 - - - - - - -
17/04:30pm 29.6 ENE 9 11 1011.5 - 0.0 - - - - - - -
17/04:00pm 29.5 ENE 9 11 1011.5 - 0.0 - - - - - - -
17/03:30pm 30.1 ENE 10 12 1011.7 - 0.0 - - - - - - -
17/03:00pm 30.2 ENE 9 11 1011.9 - 0.0 - - - - - - -
17/02:30pm 30.1 ENE 8 13 1012.1 - 0.0 - - - - - - -
17/02:00pm 30.0 ENE 8 11 1012.3 - 0.0 - - - - - - -
17/01:30pm 30.2 ENE 9 11 1012.4 - 0.0 - - - - - - -
17/01:00pm 30.4 ENE 9 12 1012.7 - 0.0 - - - - - - -
17/12:30pm 30.1 ENE 9 12 1013.0 - 0.0 - - - - - - -
17/12:00pm 30.2 ENE 10 12 1013.2 - 0.0 - - - - - - -
17/11:30am 29.7 ENE 8 11 1013.3 - 0.0 - - - - - - -
17/11:00am 30.1 ENE 9 12 1013.4 - 0.0 - - - - - - -
17/10:30am 29.9 ENE 10 13 1013.7 - 0.0 - - - - - - -
17/10:00am 29.6 ENE 11 14 1013.7 - 0.0 - - - - - - -
17/09:30am 29.2 ENE 11 15 1013.8 - 0.0 - - - - - - -
17/09:00am 28.8 ENE 10 14 1013.6 - 7.6 - - - - - - -
17/08:30am 28.7 ENE 12 15 1013.4 - 7.6 - - - - - - -
17/08:00am 28.4 ENE 12 16 1012.9 - 7.6 - - - - - - -
17/07:30am 27.9 ENE 11 15 1012.5 - 7.6 - - - - - - -
17/07:00am 27.5 ENE 12 16 1012.0 - 7.6 - - - - - - -
17/06:30am 27.3 ENE 12 15 1011.7 - 7.6 - - - - - - -
17/06:00am 27.3 ENE 12 15 1011.3 - 7.6 - - - - - - -
17/05:30am 27.3 ENE 11 15 1010.9 - 7.6 - - - - - - -
17/05:00am 27.4 ENE 13 17 1010.5 - 7.6 - - - - - - -
17/04:30am 27.3 ENE 11 16 1010.2 - 7.6 - - - - - - -
17/04:00am 27.2 ENE 11 14 1010.3 - 7.6 - - - - - - -
17/03:30am 26.5 ENE 11 13 1010.1 - 7.6 - - - - - - -
17/03:00am 23.5 SW 2 4 1010.6 - 7.6 - - - - - - -
17/02:30am 23.5 SW 4 5 1010.9 - 7.6 - - - - - - -
17/02:00am 23.3 S 5 6 1011.2 - 7.6 - - - - - - -
17/01:30am 23.4 S 5 7 1011.8 - 7.6 - - - - - - -
17/01:00am 23.5 SW 4 6 1012.1 - 7.6 - - - - - - -
17/12:30am 23.5 SSW 4 6 1012.5 - 7.6 - - - - - - -

Other Formats:

Comma delimited format used in spreadsheet applications
http://www.bom.gov.au/fwo/IDQ60701/IDQ60701.95296.axf

JavaScript Object Notation format (JSON) in row-major order
http://www.bom.gov.au/fwo/IDQ60701/IDQ60701.95296.json